Time;durP1;ratioP1;P1;durP2;ratioP2;P2;SDS_P1;SDS_P2;PMS_P1;PMS_P2;Temp;Humidity;BMP_temperature;BMP_pressure;BME280_temperature;BME280_humidity;BME280_pressure;Samples;Min_cycle;Max_cycle;Signal;HPM_P1;HPM_P2
2023/05/30 00:02:23;;;;;;;2.83;2.33;;;20.00;93.70;;;;;;7388818;19;20186;-75
2023/05/30 00:04:49;;;;;;;4.13;2.60;;;20.00;93.60;;;;;;7390115;19;20138;-76
2023/05/30 00:07:17;;;;;;;3.88;2.50;;;20.00;93.90;;;;;;7389972;19;20138;-76
2023/05/30 00:09:44;;;;;;;4.70;2.80;;;20.00;93.80;;;;;;7388375;19;20590;-77
2023/05/30 00:12:11;;;;;;;4.20;2.50;;;20.00;93.60;;;;;;7387792;19;20408;-77
2023/05/30 00:14:37;;;;;;;4.88;2.47;;;20.00;93.70;;;;;;7387669;19;20234;-77
2023/05/30 00:17:05;;;;;;;4.07;2.45;;;20.00;93.80;;;;;;7384283;19;20138;-76
2023/05/30 00:19:31;;;;;;;5.82;2.75;;;20.00;93.90;;;;;;7389799;19;20134;-76
2023/05/30 00:21:57;;;;;;;2.97;2.53;;;20.00;94.20;;;;;;7385859;19;20449;-76
2023/05/30 00:24:25;;;;;;;2.92;2.42;;;19.90;94.10;;;;;;7387788;19;20133;-75
2023/05/30 00:26:51;;;;;;;3.40;2.67;;;20.00;94.00;;;;;;7388689;19;20143;-76
2023/05/30 00:29:17;;;;;;;4.07;2.30;;;19.90;94.20;;;;;;7388140;19;20143;-77
2023/05/30 00:31:42;;;;;;;3.92;2.75;;;19.90;94.30;;;;;;7388315;19;20131;-76
2023/05/30 00:34:08;;;;;;;4.13;2.35;;;19.80;94.30;;;;;;7387088;19;20138;-76
2023/05/30 00:36:35;;;;;;;4.07;2.50;;;19.70;94.40;;;;;;7386898;19;20177;-76
2023/05/30 00:39:00;;;;;;;2.72;2.30;;;19.80;94.60;;;;;;7388187;19;20171;-77
2023/05/30 00:41:27;;;;;;;5.18;2.38;;;19.70;94.80;;;;;;7384697;19;20148;-77
2023/05/30 00:43:53;;;;;;;3.90;2.47;;;19.60;95.00;;;;;;7387807;19;20138;-76
2023/05/30 00:46:19;;;;;;;3.15;2.42;;;19.60;95.20;;;;;;7384963;19;20584;-77
2023/05/30 00:48:46;;;;;;;4.15;2.40;;;19.50;95.30;;;;;;7388878;19;20513;-75
2023/05/30 00:51:12;;;;;;;4.40;2.25;;;19.40;95.50;;;;;;7387557;19;20582;-75
2023/05/30 00:53:41;;;;;;;3.08;2.15;;;19.50;95.60;;;;;;7386634;19;20214;-77
2023/05/30 00:56:07;;;;;;;5.10;2.47;;;19.50;95.70;;;;;;7389040;19;20127;-77
2023/05/30 00:58:33;;;;;;;5.80;2.95;;;19.50;96.00;;;;;;7387107;19;20219;-75
2023/05/30 01:01:01;;;;;;;3.85;2.50;;;19.50;95.80;;;;;;7379154;19;20135;-76
2023/05/30 01:03:32;;;;;;;2.95;2.17;;;19.50;95.90;;;;;;7385633;19;20447;-75
2023/05/30 01:05:59;;;;;;;3.38;2.22;;;19.30;96.00;;;;;;7386564;19;20127;-77
2023/05/30 01:08:28;;;;;;;4.63;2.22;;;19.50;96.10;;;;;;7387676;19;20162;-76
2023/05/30 01:11:03;;;;;;;3.00;2.25;;;19.40;96.10;;;;;;7388249;19;20154;-77
2023/05/30 01:13:39;;;;;;;4.22;2.47;;;19.40;96.20;;;;;;7384115;19;20134;-76
2023/05/30 01:16:11;;;;;;;5.95;2.47;;;19.40;96.30;;;;;;7388395;19;20153;-77
2023/05/30 01:18:46;;;;;;;4.40;2.33;;;19.30;96.30;;;;;;7386312;19;20142;-77
2023/05/30 01:21:16;;;;;;;3.63;2.40;;;19.40;96.30;;;;;;7390065;19;20133;-76
2023/05/30 01:24:15;;;;;;;3.47;2.35;;;19.30;96.50;;;;;;7386838;19;20172;-76
2023/05/30 01:26:56;;;;;;;4.35;2.40;;;19.30;96.60;;;;;;7387463;19;20226;-77
2023/05/30 01:29:24;;;;;;;4.55;2.35;;;19.20;96.80;;;;;;7388018;19;20182;-76
2023/05/30 01:31:52;;;;;;;4.03;2.20;;;19.20;97.00;;;;;;7388113;19;20716;-76
2023/05/30 01:34:19;;;;;;;4.68;2.67;;;19.20;97.20;;;;;;7384797;19;20161;-76
2023/05/30 01:36:44;;;;;;;3.70;2.40;;;19.20;97.20;;;;;;7387590;19;20147;-76
2023/05/30 01:39:10;;;;;;;5.22;2.58;;;19.20;97.40;;;;;;7386462;19;20151;-76
2023/05/30 01:42:15;;;;;;;4.32;2.53;;;19.10;97.40;;;;;;7387450;19;20134;-76
2023/05/30 01:44:53;;;;;;;3.63;2.28;;;19.10;97.40;;;;;;7384239;19;20168;-76
2023/05/30 01:47:26;;;;;;;4.97;2.33;;;19.10;97.60;;;;;;7388001;19;20172;-77
2023/05/30 01:50:06;;;;;;;3.70;2.40;;;19.10;97.60;;;;;;7387291;19;20484;-77
2023/05/30 01:52:36;;;;;;;3.50;1.98;;;19.10;97.90;;;;;;7385199;19;20138;-76
2023/05/30 01:55:05;;;;;;;3.38;2.08;;;19.00;98.00;;;;;;7383483;19;20254;-77
2023/05/30 01:57:31;;;;;;;4.47;2.33;;;19.00;98.10;;;;;;7386523;19;20161;-77
2023/05/30 01:59:59;;;;;;;3.25;2.08;;;18.90;98.10;;;;;;7386034;19;20154;-76
2023/05/30 02:02:25;;;;;;;4.18;2.30;;;18.90;98.30;;;;;;7385765;19;20172;-77
2023/05/30 02:04:51;;;;;;;3.55;2.50;;;19.00;98.50;;;;;;7383294;19;20564;-77
2023/05/30 02:07:17;;;;;;;3.90;2.10;;;18.90;98.60;;;;;;7386888;19;20146;-76
2023/05/30 02:09:44;;;;;;;4.15;2.33;;;18.90;98.70;;;;;;7385385;19;20138;-77
2023/05/30 02:12:10;;;;;;;4.85;2.72;;;18.80;98.80;;;;;;7385969;19;20158;-77
2023/05/30 02:14:36;;;;;;;5.13;2.53;;;18.80;99.10;;;;;;7381374;19;20151;-76
2023/05/30 02:17:02;;;;;;;3.33;2.30;;;18.80;99.10;;;;;;7386661;19;20606;-77
2023/05/30 02:19:29;;;;;;;3.00;2.53;;;18.80;99.10;;;;;;7382999;19;20131;-77
2023/05/30 02:21:55;;;;;;;4.15;2.35;;;18.80;99.20;;;;;;7386147;19;20142;-76
2023/05/30 02:24:23;;;;;;;4.47;2.40;;;18.80;99.30;;;;;;7384630;19;20134;-77
2023/05/30 02:26:49;;;;;;;3.35;2.22;;;18.70;99.40;;;;;;7386490;19;20233;-77
2023/05/30 02:29:15;;;;;;;4.43;2.00;;;18.70;99.60;;;;;;7386287;19;20138;-77
2023/05/30 02:31:41;;;;;;;4.07;2.10;;;18.70;99.70;;;;;;7385203;19;20137;-76
2023/05/30 02:34:07;;;;;;;3.28;1.88;;;18.70;99.70;;;;;;7382019;19;20481;-77
2023/05/30 02:36:32;;;;;;;5.38;2.65;;;18.60;99.90;;;;;;7385563;19;20146;-76
2023/05/30 02:39:06;;;;;;;4.88;2.42;;;18.50;99.90;;;;;;7384350;19;20131;-77
2023/05/30 02:41:32;;;;;;;4.10;2.40;;;18.60;99.90;;;;;;7384107;19;20146;-76
2023/05/30 02:43:57;;;;;;;5.15;2.40;;;18.50;99.90;;;;;;7385104;19;20475;-77
2023/05/30 02:46:23;;;;;;;4.93;2.70;;;18.50;99.90;;;;;;7383214;19;20149;-77
2023/05/30 02:48:49;;;;;;;5.18;2.53;;;18.40;99.90;;;;;;7385503;19;20481;-77
2023/05/30 02:51:14;;;;;;;5.68;2.38;;;18.50;99.90;;;;;;7386826;19;20202;-76
2023/05/30 02:53:40;;;;;;;4.30;2.60;;;18.50;99.90;;;;;;7383402;19;20528;-76
2023/05/30 02:56:06;;;;;;;3.92;2.00;;;18.50;99.90;;;;;;7384312;19;20127;-75
2023/05/30 02:58:32;;;;;;;5.35;2.38;;;18.60;99.90;;;;;;7384009;19;20168;-76
2023/05/30 03:00:58;;;;;;;4.38;2.60;;;18.50;99.90;;;;;;7384254;19;20605;-75
2023/05/30 03:03:25;;;;;;;3.10;2.22;;;18.50;99.90;;;;;;7385205;19;20614;-75
2023/05/30 03:05:51;;;;;;;3.15;2.25;;;18.50;99.90;;;;;;7382750;19;20284;-77
2023/05/30 03:08:17;;;;;;;3.47;2.40;;;18.50;99.90;;;;;;7382642;19;20205;-77
2023/05/30 03:10:42;;;;;;;3.35;2.42;;;18.50;99.90;;;;;;7385214;19;20186;-76
2023/05/30 03:13:08;;;;;;;3.03;2.10;;;18.40;99.90;;;;;;7382206;19;20146;-77
2023/05/30 03:15:34;;;;;;;4.07;2.30;;;18.40;99.90;;;;;;7383350;19;20142;-75
2023/05/30 03:18:00;;;;;;;5.13;2.55;;;18.50;99.90;;;;;;7389460;19;20560;-76
2023/05/30 03:20:28;;;;;;;4.65;2.72;;;18.40;99.90;;;;;;7391389;19;20146;-75
2023/05/30 03:22:54;;;;;;;5.07;2.42;;;18.30;99.90;;;;;;7390201;19;20131;-75
2023/05/30 03:25:22;;;;;;;3.70;2.45;;;18.40;99.90;;;;;;7389747;19;20161;-76
2023/05/30 03:27:50;;;;;;;6.00;2.53;;;18.40;99.90;;;;;;7388892;19;20131;-76
2023/05/30 03:30:18;;;;;;;5.15;2.67;;;18.40;99.90;;;;;;7388365;19;20494;-76
2023/05/30 03:32:44;;;;;;;4.35;2.35;;;18.50;99.90;;;;;;7391357;19;20118;-76
2023/05/30 03:35:10;;;;;;;3.70;2.50;;;18.50;99.90;;;;;;7389381;19;20154;-76
2023/05/30 03:37:35;;;;;;;5.20;2.63;;;18.40;99.90;;;;;;7390830;19;20130;-76
2023/05/30 03:40:01;;;;;;;4.82;2.60;;;18.30;99.90;;;;;;7390126;19;20131;-76
2023/05/30 03:42:27;;;;;;;7.78;2.58;;;18.30;99.90;;;;;;7388081;19;20541;-75
2023/05/30 03:44:52;;;;;;;5.93;2.70;;;18.40;99.90;;;;;;7389871;19;20236;-76
2023/05/30 03:47:18;;;;;;;4.80;2.40;;;18.40;99.90;;;;;;7389022;19;20146;-76
2023/05/30 03:49:44;;;;;;;4.10;2.58;;;18.30;99.90;;;;;;7390256;19;20134;-76
2023/05/30 03:52:10;;;;;;;4.45;2.60;;;18.30;99.90;;;;;;7388862;19;20247;-77
2023/05/30 03:54:35;;;;;;;3.75;2.50;;;18.30;99.90;;;;;;7389097;19;20127;-76
2023/05/30 03:57:01;;;;;;;4.63;2.20;;;18.40;99.90;;;;;;7389887;19;20130;-77
2023/05/30 03:59:27;;;;;;;4.05;2.30;;;18.40;99.90;;;;;;7390344;19;20597;-76
2023/05/30 04:01:53;;;;;;;3.30;2.33;;;18.30;99.90;;;;;;7387952;19;20139;-75
2023/05/30 04:04:19;;;;;;;3.55;2.50;;;18.30;99.90;;;;;;7390142;19;20661;-76
2023/05/30 04:06:45;;;;;;;4.78;2.50;;;18.30;99.90;;;;;;7388280;19;20158;-76
2023/05/30 04:09:11;;;;;;;6.07;2.50;;;18.30;99.90;;;;;;7391125;19;20131;-77
2023/05/30 04:11:36;;;;;;;5.18;2.65;;;18.20;99.90;;;;;;7390334;19;20605;-76
2023/05/30 04:14:02;;;;;;;3.78;2.60;;;18.20;99.90;;;;;;7388141;19;20145;-77
2023/05/30 04:16:28;;;;;;;5.13;3.60;;;18.20;99.90;;;;;;7388280;19;20153;-76
2023/05/30 04:18:54;;;;;;;5.10;2.72;;;18.30;99.90;;;;;;7388949;19;20217;-76
2023/05/30 04:21:19;;;;;;;6.10;3.03;;;18.20;99.90;;;;;;7388545;19;20159;-76
2023/05/30 04:23:45;;;;;;;4.22;2.75;;;18.20;99.90;;;;;;7387832;19;20143;-76
2023/05/30 04:26:11;;;;;;;5.38;2.85;;;18.10;99.90;;;;;;7387757;19;20147;-76
2023/05/30 04:28:38;;;;;;;3.85;2.60;;;18.10;99.90;;;;;;7388019;19;20131;-77
2023/05/30 04:31:05;;;;;;;6.60;2.60;;;18.10;99.90;;;;;;7389853;19;20459;-75
2023/05/30 04:33:34;;;;;;;3.75;2.28;;;18.10;99.90;;;;;;7385760;19;20198;-75
2023/05/30 04:36:02;;;;;;;4.45;2.60;;;18.10;99.90;;;;;;7388716;19;20531;-76
2023/05/30 04:38:28;;;;;;;3.83;2.60;;;18.00;99.90;;;;;;7389388;19;20139;-77
2023/05/30 04:40:54;;;;;;;4.72;2.97;;;18.00;99.90;;;;;;7386426;19;20139;-77
2023/05/30 04:43:20;;;;;;;4.22;2.42;;;18.00;99.90;;;;;;7385044;19;20174;-77
2023/05/30 04:45:49;;;;;;;4.18;2.13;;;18.10;99.90;;;;;;7387937;19;20151;-77
2023/05/30 04:48:15;;;;;;;5.05;2.42;;;18.10;99.90;;;;;;7390567;19;20155;-76
2023/05/30 04:50:46;;;;;;;5.05;2.50;;;18.00;99.90;;;;;;7386989;19;20202;-75
2023/05/30 04:53:15;;;;;;;6.35;3.55;;;18.00;99.90;;;;;;7388534;19;20147;-75
2023/05/30 04:55:44;;;;;;;5.30;3.00;;;17.90;99.90;;;;;;7387900;19;20500;-77
2023/05/30 04:58:13;;;;;;;5.07;3.00;;;18.00;99.90;;;;;;7388818;19;20349;-76
2023/05/30 05:00:40;;;;;;;4.78;3.25;;;18.00;99.90;;;;;;7389437;19;20476;-76
2023/05/30 05:03:07;;;;;;;3.92;2.55;;;18.10;99.90;;;;;;7388182;19;20665;-76
2023/05/30 05:05:33;;;;;;;4.18;2.72;;;18.10;99.90;;;;;;7388079;19;20218;-76
2023/05/30 05:08:00;;;;;;;7.45;3.00;;;18.00;99.90;;;;;;7388625;19;20172;-76
2023/05/30 05:10:26;;;;;;;6.15;2.72;;;18.10;99.90;;;;;;7388631;19;20126;-76
2023/05/30 05:12:52;;;;;;;4.80;2.60;;;18.10;99.90;;;;;;7388280;19;20171;-76
2023/05/30 05:15:18;;;;;;;6.53;2.63;;;18.10;99.90;;;;;;7384574;19;20139;-76
2023/05/30 05:17:44;;;;;;;5.45;2.78;;;18.20;99.90;;;;;;7385765;19;20135;-77
2023/05/30 05:20:10;;;;;;;4.50;2.78;;;18.20;99.90;;;;;;7389785;19;20226;-75
2023/05/30 05:22:36;;;;;;;4.22;2.83;;;18.20;99.90;;;;;;7386160;19;20139;-75
2023/05/30 05:25:03;;;;;;;7.80;3.13;;;18.20;99.90;;;;;;7388359;19;20134;-76
2023/05/30 05:27:29;;;;;;;4.82;3.08;;;18.10;99.90;;;;;;7388073;19;20632;-76
2023/05/30 05:29:55;;;;;;;7.88;2.90;;;18.10;99.90;;;;;;7387804;19;20150;-75
2023/05/30 05:32:21;;;;;;;5.45;2.70;;;18.20;99.90;;;;;;7375634;19;20493;-77
2023/05/30 05:34:47;;;;;;;3.58;2.63;;;18.30;99.90;;;;;;7387509;19;20150;-77
2023/05/30 05:37:12;;;;;;;5.18;2.72;;;18.40;99.90;;;;;;7386708;19;20198;-76
2023/05/30 05:39:38;;;;;;;6.50;3.15;;;18.40;99.90;;;;;;7385903;19;20183;-76
2023/05/30 05:42:05;;;;;;;5.55;2.33;;;18.30;99.90;;;;;;7382584;19;20150;-75
2023/05/30 05:44:31;;;;;;;3.88;2.80;;;18.40;99.90;;;;;;7388412;19;20143;-76
2023/05/30 05:46:57;;;;;;;6.00;2.97;;;18.40;99.90;;;;;;7390586;19;20193;-76
2023/05/30 05:49:23;;;;;;;4.97;2.72;;;18.30;99.90;;;;;;7392828;19;20453;-76
2023/05/30 05:51:49;;;;;;;4.13;2.30;;;18.40;99.90;;;;;;7391452;19;20143;-77
2023/05/30 05:54:17;;;;;;;5.80;2.78;;;18.40;99.90;;;;;;7393375;19;20178;-78
2023/05/30 05:56:44;;;;;;;3.53;2.38;;;18.50;99.90;;;;;;7394599;19;20205;-76
2023/05/30 05:59:09;;;;;;;5.30;2.70;;;18.50;99.90;;;;;;7390377;19;20209;-79
2023/05/30 06:01:35;;;;;;;3.60;2.70;;;18.50;99.90;;;;;;7391877;19;20426;-78
2023/05/30 06:04:08;;;;;;;4.88;2.40;;;18.60;99.90;;;;;;7392618;19;20138;-78
2023/05/30 06:06:34;;;;;;;4.15;2.88;;;18.70;99.90;;;;;;7392971;19;20150;-78
2023/05/30 06:09:00;;;;;;;5.70;2.78;;;18.70;99.90;;;;;;7391338;19;20142;-80
2023/05/30 06:11:26;;;;;;;4.93;2.72;;;18.80;99.90;;;;;;7387469;19;20221;-78
2023/05/30 06:13:51;;;;;;;4.93;2.65;;;18.90;99.90;;;;;;7377040;19;20229;-79
2023/05/30 06:16:17;;;;;;;5.35;2.85;;;19.10;99.90;;;;;;7383059;19;20146;-80
2023/05/30 06:18:43;;;;;;;3.63;1.88;;;19.30;99.90;;;;;;7379564;19;20385;-81
2023/05/30 06:21:10;;;;;;;5.80;2.65;;;19.60;99.90;;;;;;7382664;19;20142;-79
2023/05/30 06:23:37;;;;;;;4.75;3.03;;;19.80;99.90;;;;;;7382719;19;20150;-82
2023/05/30 06:26:03;;;;;;;3.40;2.25;;;19.90;99.90;;;;;;7389080;19;20149;-81
2023/05/30 06:28:29;;;;;;;4.07;2.28;;;19.90;99.90;;;;;;7385875;19;20167;-79
2023/05/30 06:30:55;;;;;;;3.88;2.38;;;20.10;99.90;;;;;;7384678;19;20606;-83
2023/05/30 06:33:20;;;;;;;3.10;2.25;;;20.40;99.90;;;;;;7385162;19;20142;-82
2023/05/30 06:35:47;;;;;;;3.97;2.30;;;21.00;99.90;;;;;;7381855;19;20924;-81
2023/05/30 06:38:13;;;;;;;5.55;2.75;;;21.30;99.50;;;;;;7386304;19;20142;-81
2023/05/30 06:40:39;;;;;;;4.10;2.35;;;21.40;99.20;;;;;;7384828;19;20980;-80
2023/05/30 06:43:05;;;;;;;4.05;2.72;;;21.30;98.90;;;;;;7381987;19;20240;-79
2023/05/30 06:45:31;;;;;;;7.72;3.10;;;21.10;99.10;;;;;;7385662;19;20131;-78
2023/05/30 06:48:01;;;;;;;4.97;2.50;;;21.00;99.40;;;;;;7386795;19;20607;-78
2023/05/30 06:50:27;;;;;;;5.10;2.72;;;21.20;99.10;;;;;;7386999;19;20142;-78
2023/05/30 06:52:53;;;;;;;3.90;2.65;;;21.40;98.80;;;;;;7392133;19;20183;-78
2023/05/30 06:55:19;;;;;;;5.20;2.83;;;21.50;98.90;;;;;;7390292;19;20594;-77
2023/05/30 06:57:45;;;;;;;4.03;2.70;;;21.30;98.80;;;;;;7392129;19;20328;-77
2023/05/30 07:00:11;;;;;;;4.30;2.45;;;21.20;99.20;;;;;;7393176;19;20154;-79
2023/05/30 07:02:37;;;;;;;5.03;2.70;;;21.00;99.10;;;;;;7391137;19;20135;-79
2023/05/30 07:05:03;;;;;;;4.13;2.70;;;20.80;99.50;;;;;;7393241;19;20289;-79
2023/05/30 07:07:29;;;;;;;4.72;2.33;;;20.90;99.70;;;;;;7392448;19;20164;-78
2023/05/30 07:09:55;;;;;;;6.95;3.00;;;20.70;99.70;;;;;;7393793;19;20135;-78
2023/05/30 07:12:21;;;;;;;4.90;2.25;;;20.50;99.90;;;;;;7388822;19;20151;-79
2023/05/30 07:14:47;;;;;;;7.75;4.88;;;20.50;99.90;;;;;;7391398;19;20936;-79
2023/05/30 07:17:12;;;;;;;7.53;2.83;;;20.50;99.90;;;;;;7392240;19;20138;-80
2023/05/30 07:19:39;;;;;;;5.38;2.97;;;20.50;99.90;;;;;;7393049;19;20130;-79
2023/05/30 07:22:05;;;;;;;11.98;2.55;;;20.50;99.90;;;;;;7391535;19;20167;-79
2023/05/30 07:24:31;;;;;;;6.25;2.67;;;20.50;99.90;;;;;;7391546;19;20131;-79
2023/05/30 07:26:57;;;;;;;4.47;2.70;;;20.70;99.90;;;;;;7391207;19;20142;-80
2023/05/30 07:29:23;;;;;;;6.65;3.00;;;20.90;99.80;;;;;;7387259;19;20129;-80
2023/05/30 07:31:49;;;;;;;4.70;2.88;;;21.20;99.40;;;;;;7390968;19;20167;-80
2023/05/30 07:34:15;;;;;;;5.28;3.00;;;21.30;99.00;;;;;;7389517;19;20139;-80
2023/05/30 07:36:40;;;;;;;3.60;2.70;;;21.40;98.90;;;;;;7390367;19;20253;-81
2023/05/30 07:39:06;;;;;;;4.93;2.67;;;21.30;98.90;;;;;;7391827;19;20131;-79
2023/05/30 07:41:32;;;;;;;5.72;3.03;;;21.40;98.80;;;;;;7390080;19;20146;-79
2023/05/30 07:43:58;;;;;;;5.75;2.72;;;21.50;98.80;;;;;;7389840;19;20161;-77
2023/05/30 07:46:26;;;;;;;4.70;2.30;;;21.80;98.60;;;;;;7391046;19;20162;-77
2023/05/30 07:48:52;;;;;;;4.07;2.30;;;22.00;98.10;;;;;;7389630;19;20147;-78
2023/05/30 07:51:20;;;;;;;4.53;2.30;;;22.10;97.80;;;;;;7393105;19;20123;-76
2023/05/30 07:53:46;;;;;;;4.28;2.28;;;22.40;97.40;;;;;;7388799;19;20697;-76
2023/05/30 07:56:11;;;;;;;4.28;2.47;;;22.40;97.20;;;;;;7388921;19;20147;-79
2023/05/30 07:58:37;;;;;;;5.13;2.83;;;22.10;97.60;;;;;;7381133;19;20190;-76
2023/05/30 08:01:05;;;;;;;6.35;2.88;;;22.00;97.70;;;;;;7385350;19;20139;-77
2023/05/30 08:03:30;;;;;;;4.53;2.60;;;22.00;97.70;;;;;;7384083;19;20138;-77
2023/05/30 08:05:56;;;;;;;3.45;2.45;;;22.10;97.50;;;;;;7385834;19;20522;-77
2023/05/30 08:08:22;;;;;;;4.45;2.08;;;22.10;97.60;;;;;;7390062;19;20137;-77
2023/05/30 08:10:48;;;;;;;2.25;2.00;;;22.40;97.20;;;;;;7387174;19;20145;-75
2023/05/30 08:13:14;;;;;;;6.88;2.75;;;22.70;96.70;;;;;;7391670;19;20147;-76
2023/05/30 08:15:40;;;;;;;3.67;2.00;;;22.80;96.30;;;;;;7391072;19;20135;-75
2023/05/30 08:18:08;;;;;;;6.43;2.53;;;22.80;96.40;;;;;;7389894;19;20141;-76
2023/05/30 08:20:35;;;;;;;4.55;2.88;;;22.80;96.20;;;;;;7389197;19;20141;-77
2023/05/30 08:23:01;;;;;;;5.53;2.42;;;23.30;95.70;;;;;;7389283;19;20163;-75
2023/05/30 08:25:32;;;;;;;5.47;2.58;;;23.80;94.90;;;;;;7388946;19;20147;-76
2023/05/30 08:27:59;;;;;;;5.53;2.60;;;24.00;94.30;;;;;;7388852;19;20249;-77
2023/05/30 08:30:25;;;;;;;4.93;2.08;;;24.00;93.40;;;;;;7387733;19;20156;-77
2023/05/30 08:32:51;;;;;;;4.97;2.33;;;23.70;93.90;;;;;;7389043;19;20159;-76
2023/05/30 08:35:17;;;;;;;4.10;2.58;;;23.60;94.40;;;;;;7387924;19;20133;-77
2023/05/30 08:37:43;;;;;;;3.40;2.35;;;23.60;94.10;;;;;;7390631;19;20194;-77
2023/05/30 08:40:13;;;;;;;4.28;2.20;;;23.90;93.00;;;;;;7388905;19;20150;-78
2023/05/30 08:42:41;;;;;;;7.93;4.05;;;24.00;92.50;;;;;;7387601;19;20609;-79
2023/05/30 08:45:07;;;;;;;7.20;4.47;;;23.80;92.40;;;;;;7387286;19;20151;-78
2023/05/30 08:47:35;;;;;;;7.45;2.80;;;23.50;92.70;;;;;;7389079;19;20528;-79
2023/05/30 08:50:03;;;;;;;3.47;2.58;;;23.20;93.20;;;;;;7386951;19;20567;-79
2023/05/30 08:52:31;;;;;;;4.57;2.58;;;22.90;93.40;;;;;;7384414;19;20178;-79
2023/05/30 08:55:17;;;;;;;5.47;2.40;;;22.90;93.70;;;;;;7385711;19;20130;-79
2023/05/30 08:58:04;;;;;;;4.45;2.55;;;23.00;93.90;;;;;;7389484;19;20151;-79
2023/05/30 09:00:31;;;;;;;5.22;2.67;;;22.80;93.70;;;;;;7386831;19;20139;-80
2023/05/30 09:02:58;;;;;;;4.75;2.38;;;22.80;94.10;;;;;;7390755;19;20146;-78
2023/05/30 09:05:24;;;;;;;5.47;2.53;;;22.80;94.10;;;;;;7391191;19;20253;-79
2023/05/30 09:08:09;;;;;;;;;;;;;;;;;;;;;
2023/05/30 09:10:36;;;;;;;6.38;2.75;;;22.40;94.50;;;;;;7389384;19;20146;-79
2023/05/30 09:13:02;;;;;;;4.60;2.55;;;22.50;94.70;;;;;;7389057;19;20139;-79
2023/05/30 09:15:27;;;;;;;3.03;2.17;;;22.60;94.30;;;;;;7384280;19;20157;-79
2023/05/30 09:17:54;;;;;;;5.60;2.88;;;22.70;94.30;;;;;;7388794;19;20134;-80
2023/05/30 09:20:22;;;;;;;5.72;2.55;;;22.90;94.00;;;;;;7390233;19;20147;-80
2023/05/30 09:22:47;;;;;;;4.05;2.50;;;22.90;94.00;;;;;;7388378;19;20150;-80
2023/05/30 09:25:15;;;;;;;5.93;2.45;;;22.80;94.30;;;;;;7389948;19;20513;-78
2023/05/30 09:27:50;;;;;;;5.00;2.72;;;22.80;94.50;;;;;;7387821;19;20160;-79
2023/05/30 09:30:16;;;;;;;3.90;2.50;;;22.90;94.10;;;;;;7390016;19;20205;-81
2023/05/30 09:32:58;;;;;;;3.90;2.63;;;23.10;93.90;;;;;;7386146;19;20170;-80
2023/05/30 09:35:25;;;;;;;3.65;2.28;;;23.00;93.90;;;;;;7387255;19;20141;-79
2023/05/30 09:37:51;;;;;;;3.97;2.38;;;23.00;94.00;;;;;;7389996;19;20161;-77
2023/05/30 09:40:17;;;;;;;6.00;2.95;;;23.50;94.00;;;;;;7391758;19;20696;-79
2023/05/30 09:42:51;;;;;;;2.78;2.35;;;23.60;93.40;;;;;;7386532;19;20165;-80
2023/05/30 09:45:23;;;;;;;4.15;2.33;;;23.60;93.30;;;;;;7390836;19;20513;-80
2023/05/30 09:47:51;;;;;;;6.25;2.55;;;23.60;92.90;;;;;;7390025;19;20911;-80
2023/05/30 09:50:18;;;;;;;6.22;3.00;;;23.60;92.80;;;;;;7388102;19;20884;-82
2023/05/30 09:52:49;;;;;;;4.68;2.55;;;23.60;92.70;;;;;;7388433;19;20142;-78
2023/05/30 09:55:16;;;;;;;4.35;2.55;;;23.30;93.10;;;;;;7386382;19;20689;-80
2023/05/30 09:57:49;;;;;;;4.47;2.65;;;23.20;93.60;;;;;;7390639;19;20166;-78
2023/05/30 10:00:21;;;;;;;6.25;2.55;;;23.20;93.60;;;;;;7390986;19;20161;-80
2023/05/30 10:02:54;;;;;;;6.22;2.30;;;23.30;93.70;;;;;;7387595;19;20168;-78
2023/05/30 10:05:25;;;;;;;3.80;2.25;;;23.50;92.90;;;;;;7387798;19;20135;-79
2023/05/30 10:07:56;;;;;;;5.32;2.53;;;23.50;92.40;;;;;;7389604;19;20173;-80
2023/05/30 10:10:24;;;;;;;5.47;2.38;;;23.50;92.50;;;;;;7390163;19;20135;-81
2023/05/30 10:12:54;;;;;;;4.75;2.55;;;23.60;92.30;;;;;;7387872;19;20214;-79
2023/05/30 10:15:23;;;;;;;5.15;2.40;;;23.50;92.30;;;;;;7384351;19;20138;-81
2023/05/30 10:18:08;;;;;;;7.22;2.47;;;23.50;91.80;;;;;;7386220;19;20142;-80
2023/05/30 10:20:41;;;;;;;4.20;2.90;;;23.70;91.90;;;;;;7391262;19;20780;-80
2023/05/30 10:23:08;;;;;;;5.50;2.50;;;23.90;92.00;;;;;;7388939;19;20171;-80
2023/05/30 10:25:37;;;;;;;6.25;3.25;;;23.80;91.70;;;;;;7390439;19;20241;-81
2023/05/30 10:28:05;;;;;;;5.10;2.95;;;23.80;91.90;;;;;;7390383;19;20857;-80
2023/05/30 10:30:33;;;;;;;4.80;2.38;;;23.80;92.20;;;;;;7388662;19;20142;-82
2023/05/30 10:33:10;;;;;;;5.63;2.47;;;23.70;92.30;;;;;;7388977;19;20142;-80
2023/05/30 10:35:37;;;;;;;5.68;2.70;;;23.60;92.70;;;;;;7384317;19;20153;-79
2023/05/30 10:38:06;;;;;;;4.00;2.35;;;23.70;92.70;;;;;;7386683;19;20139;-81
2023/05/30 10:40:53;;;;;;;5.65;2.35;;;23.70;92.00;;;;;;7392156;19;20135;-79
2023/05/30 10:43:39;;;;;;;5.32;2.17;;;23.50;91.70;;;;;;7384798;19;20490;-81
2023/05/30 10:46:23;;;;;;;3.72;2.90;;;23.50;91.90;;;;;;7386171;19;20182;-80
2023/05/30 10:48:55;;;;;;;4.45;2.33;;;23.50;92.00;;;;;;7388345;19;20148;-79
2023/05/30 10:51:21;;;;;;;3.88;1.98;;;23.40;91.90;;;;;;7386882;19;20587;-84
2023/05/30 10:53:48;;;;;;;5.30;2.50;;;23.30;91.80;;;;;;7387944;19;20126;-83
2023/05/30 10:56:42;;;;;;;4.15;2.42;;;23.40;91.80;;;;;;7387511;19;20143;-83
2023/05/30 10:59:17;;;;;;;3.92;2.47;;;23.50;91.50;;;;;;7389887;19;20146;-83
2023/05/30 11:02:03;;;;;;;4.18;2.20;;;23.50;91.60;;;;;;7387033;19;20241;-83
2023/05/30 11:04:38;;;;;;;4.47;2.75;;;23.60;91.20;;;;;;7390826;19;20145;-82
2023/05/30 11:07:06;;;;;;;3.75;2.50;;;23.60;91.60;;;;;;7389114;19;20138;-82
2023/05/30 11:09:32;;;;;;;4.15;2.58;;;23.60;91.40;;;;;;7387978;19;20206;-84
2023/05/30 11:12:00;;;;;;;2.40;1.80;;;23.70;91.70;;;;;;7386973;19;20139;-82
2023/05/30 11:14:34;;;;;;;4.13;2.10;;;23.80;91.50;;;;;;7387411;19;20199;-81
2023/05/30 11:17:07;;;;;;;3.33;2.30;;;24.00;91.30;;;;;;7387138;19;20170;-80
2023/05/30 11:19:37;;;;;;;3.30;2.53;;;24.20;90.90;;;;;;7387767;19;20133;-81
2023/05/30 11:22:15;;;;;;;4.97;3.72;;;24.40;90.60;;;;;;7385893;19;20131;-83
2023/05/30 11:24:41;;;;;;;3.80;2.70;;;24.40;90.30;;;;;;7387744;19;20157;-81
2023/05/30 11:27:10;;;;;;;5.00;2.40;;;24.40;90.30;;;;;;7389942;19;20137;-82
2023/05/30 11:29:48;;;;;;;5.30;2.67;;;24.40;90.30;;;;;;7386449;19;20139;-81
2023/05/30 11:32:23;;;;;;;6.15;2.15;;;24.30;89.70;;;;;;7389576;19;20370;-82
2023/05/30 11:34:59;;;;;;;4.28;2.60;;;24.20;89.70;;;;;;7385764;19;20228;-81
2023/05/30 11:37:25;;;;;;;3.22;2.10;;;24.00;88.90;;;;;;7388025;19;20210;-80
2023/05/30 11:39:57;;;;;;;6.05;2.70;;;23.80;89.40;;;;;;7395956;19;20142;-82
2023/05/30 11:42:24;;;;;;;3.65;2.40;;;23.90;89.60;;;;;;7392611;19;20150;-81
2023/05/30 11:44:55;;;;;;;5.18;2.75;;;24.00;89.60;;;;;;7395670;19;20139;-82
2023/05/30 11:47:22;;;;;;;3.63;2.92;;;24.20;87.30;;;;;;7394426;19;20127;-82
2023/05/30 11:49:48;;;;;;;6.25;3.00;;;24.30;88.10;;;;;;7392621;19;20214;-85
2023/05/30 11:52:14;;;;;;;4.13;2.38;;;24.50;88.30;;;;;;7394232;19;20182;-82
2023/05/30 11:54:40;;;;;;;4.15;2.30;;;24.60;87.50;;;;;;7392451;19;20178;-82
2023/05/30 11:57:07;;;;;;;4.38;2.45;;;24.60;86.40;;;;;;7394640;19;20158;-82
2023/05/30 11:59:33;;;;;;;6.03;2.13;;;24.50;86.40;;;;;;7396798;19;20574;-81
2023/05/30 12:02:01;;;;;;;7.20;2.50;;;24.60;85.40;;;;;;7395412;19;20130;-82
2023/05/30 12:04:30;;;;;;;3.33;2.50;;;24.60;85.40;;;;;;7394975;19;20194;-83
2023/05/30 12:06:58;;;;;;;5.60;3.97;;;24.50;86.30;;;;;;7399344;19;20146;-83
2023/05/30 12:09:24;;;;;;;3.05;2.22;;;24.60;86.00;;;;;;7400711;19;20131;-84
2023/05/30 12:11:54;;;;;;;3.40;2.55;;;24.80;84.70;;;;;;7399876;19;20164;-82
2023/05/30 12:14:21;;;;;;;3.33;2.22;;;24.80;84.30;;;;;;7402999;19;20135;-83
2023/05/30 12:16:54;;;;;;;5.50;2.30;;;24.80;84.20;;;;;;7415059;19;20173;-83
2023/05/30 12:19:20;;;;;;;7.75;2.42;;;24.80;84.90;;;;;;7411344;19;20143;-79
2023/05/30 12:21:50;;;;;;;5.57;2.30;;;24.90;85.70;;;;;;7408952;19;20455;-83
2023/05/30 12:24:15;;;;;;;6.40;2.25;;;25.00;84.40;;;;;;7411626;19;20621;-83
2023/05/30 12:26:48;;;;;;;3.53;2.00;;;25.00;83.30;;;;;;7408556;19;20194;-81
2023/05/30 12:29:14;;;;;;;4.85;2.50;;;25.00;84.20;;;;;;7410195;19;20607;-82
2023/05/30 12:31:40;;;;;;;3.55;2.22;;;25.10;83.70;;;;;;7409477;19;20133;-82
2023/05/30 12:34:05;;;;;;;4.10;2.00;;;25.00;83.40;;;;;;7406586;19;20130;-82
2023/05/30 12:36:31;;;;;;;3.88;2.25;;;25.00;83.30;;;;;;7401444;19;20131;-81
2023/05/30 12:38:58;;;;;;;3.90;2.53;;;24.90;83.10;;;;;;7401323;19;20135;-82
2023/05/30 12:41:39;;;;;;;5.53;2.38;;;24.80;84.00;;;;;;7401462;19;20603;-82
2023/05/30 12:44:05;;;;;;;3.10;2.28;;;24.80;83.70;;;;;;7399192;19;20146;-83
2023/05/30 12:46:33;;;;;;;4.25;2.15;;;24.90;82.80;;;;;;7398649;19;20143;-83
2023/05/30 12:49:00;;;;;;;5.25;2.42;;;24.80;82.40;;;;;;7399406;19;20131;-82
2023/05/30 12:51:26;;;;;;;3.55;2.35;;;24.70;82.80;;;;;;7391565;19;20154;-82
2023/05/30 12:53:53;;;;;;;3.90;2.20;;;24.70;83.70;;;;;;7389891;19;20142;-82